createdAt,value
2022-09-14T00:01:44.702Z,2.53
2022-09-14T00:03:47.014Z,2.03
2022-09-14T00:05:48.818Z,2.10
2022-09-14T00:07:50.818Z,2.27
2022-09-14T00:09:52.676Z,2.10
2022-09-14T00:11:54.342Z,2.30
2022-09-14T00:13:58.091Z,2.20
2022-09-14T00:16:05.054Z,2.13
2022-09-14T00:18:08.301Z,2.20
2022-09-14T00:20:10.048Z,2.00
2022-09-14T00:22:11.749Z,2.00
2022-09-14T00:24:13.489Z,2.10
2022-09-14T00:26:17.916Z,2.20
2022-09-14T00:28:19.610Z,2.10
2022-09-14T00:30:23.397Z,2.30
2022-09-14T00:32:25.092Z,2.00
2022-09-14T00:34:27.796Z,2.03
2022-09-14T00:36:31.022Z,2.17
2022-09-14T00:38:33.790Z,2.50
2022-09-14T00:40:36.012Z,2.50
2022-09-14T00:42:38.454Z,2.13
2022-09-14T00:44:40.050Z,2.00
2022-09-14T00:46:41.660Z,2.33
2022-09-14T00:48:43.677Z,2.30
2022-09-14T00:50:45.918Z,2.13
2022-09-14T00:52:49.827Z,2.17
2022-09-14T00:54:52.549Z,2.50
2022-09-14T00:56:55.862Z,2.40
2022-09-14T00:58:59.728Z,2.50
2022-09-14T01:01:02.444Z,2.40
2022-09-14T01:03:04.234Z,2.10
2022-09-14T01:05:07.116Z,2.50
2022-09-14T01:07:43.014Z,1.97
2022-09-14T01:10:08.169Z,2.50
2022-09-14T01:12:31.622Z,1.97
2022-09-14T01:14:39.678Z,2.03
2022-09-14T01:16:49.160Z,2.50
2022-09-14T01:18:56.537Z,2.20
2022-09-14T01:21:07.282Z,2.20
2022-09-14T01:23:11.614Z,2.53
2022-09-14T01:25:44.595Z,1.80
2022-09-14T01:27:48.367Z,2.03
2022-09-14T01:30:06.656Z,1.73
2022-09-14T01:32:25.735Z,2.17
2022-09-14T01:34:37.337Z,2.30
2022-09-14T01:36:43.027Z,2.17
2022-09-14T01:38:48.882Z,2.20
2022-09-14T01:40:51.405Z,1.80
2022-09-14T01:43:10.897Z,2.07
2022-09-14T01:45:16.575Z,2.47
2022-09-14T01:47:28.571Z,4.07
2022-09-14T01:49:41.755Z,4.53
2022-09-14T01:51:49.532Z,5.27
2022-09-14T01:54:04.564Z,5.17
2022-09-14T01:56:26.235Z,4.63
2022-09-14T01:58:40.325Z,4.67
2022-09-14T02:00:45.897Z,4.13
2022-09-14T02:02:51.109Z,4.40
2022-09-14T02:04:57.746Z,5.50
2022-09-14T02:06:59.480Z,6.70
2022-09-14T02:09:02.317Z,6.10
2022-09-14T02:11:04.055Z,6.13
2022-09-14T02:13:07.134Z,5.10
2022-09-14T02:15:11.132Z,5.73
2022-09-14T02:17:13.662Z,3.37
2022-09-14T02:19:15.359Z,4.07
2022-09-14T02:21:29.599Z,4.57
2022-09-14T02:23:31.292Z,3.10
2022-09-14T02:25:33.466Z,3.60
2022-09-14T02:27:35.253Z,3.87
2022-09-14T02:29:37.197Z,3.77
2022-09-14T02:31:57.179Z,3.83
2022-09-14T02:34:29.859Z,3.50
2022-09-14T02:36:48.595Z,3.93
2022-09-14T02:38:58.182Z,4.23
2022-09-14T02:41:04.975Z,3.90
2022-09-14T02:43:31.565Z,4.13
2022-09-14T02:46:10.511Z,4.90
2022-09-14T02:48:15.532Z,4.50
2022-09-14T02:50:43.245Z,4.60
2022-09-14T02:53:09.401Z,4.00
2022-09-14T02:55:15.118Z,4.30
2022-09-14T02:57:16.846Z,3.70
2022-09-14T02:59:18.654Z,3.97
2022-09-14T03:01:24.729Z,3.93
2022-09-14T03:03:26.449Z,4.27
2022-09-14T03:05:28.214Z,5.10
2022-09-14T03:07:30.030Z,4.13
2022-09-14T03:09:31.725Z,4.83
2022-09-14T03:11:33.693Z,4.70
2022-09-14T03:13:35.800Z,4.83
2022-09-14T03:15:37.826Z,5.40
2022-09-14T03:17:39.573Z,6.60
2022-09-14T03:19:41.193Z,6.13
2022-09-14T03:21:43.114Z,5.77
2022-09-14T03:23:50.547Z,5.37
2022-09-14T03:25:52.272Z,5.50
2022-09-14T03:27:56.822Z,5.90
2022-09-14T03:29:58.405Z,6.03
2022-09-14T03:32:00.056Z,25.77
2022-09-14T03:34:02.472Z,56.40
2022-09-14T03:36:12.814Z,77.00
2022-09-14T03:38:14.804Z,23.90
2022-09-14T03:40:21.606Z,16.50
2022-09-14T03:42:24.260Z,12.57
2022-09-14T03:44:26.140Z,14.33
2022-09-14T03:46:27.883Z,17.73
2022-09-14T03:48:29.934Z,23.87
2022-09-14T03:50:31.825Z,19.23
2022-09-14T03:52:34.626Z,32.10
2022-09-14T03:54:36.436Z,20.77
2022-09-14T03:56:38.688Z,18.90
2022-09-14T03:58:40.442Z,13.47
2022-09-14T04:00:42.105Z,13.97
2022-09-14T04:02:43.846Z,12.43
2022-09-14T04:04:48.348Z,9.93
2022-09-14T04:06:50.010Z,10.30
2022-09-14T04:08:51.692Z,14.13
2022-09-14T04:10:53.792Z,12.20
2022-09-14T04:12:55.624Z,11.97
2022-09-14T04:14:57.418Z,11.70
2022-09-14T04:16:59.106Z,12.90
2022-09-14T04:19:00.861Z,33.30
2022-09-14T04:21:08.466Z,44.60
2022-09-14T04:23:10.533Z,66.97
2022-09-14T04:25:12.616Z,18.97
2022-09-14T04:27:14.753Z,12.07
2022-09-14T04:29:16.492Z,9.90
2022-09-14T04:31:18.642Z,10.80
2022-09-14T04:33:20.516Z,9.97
2022-09-14T04:35:22.453Z,14.57
2022-09-14T04:37:24.279Z,6.77
2022-09-14T04:39:26.378Z,7.40
2022-09-14T04:41:29.425Z,7.20
2022-09-14T04:43:31.570Z,11.40
2022-09-14T04:45:33.234Z,7.20
2022-09-14T04:47:34.964Z,11.60
2022-09-14T04:49:36.567Z,13.83
2022-09-14T04:51:38.277Z,15.90
2022-09-14T04:53:40.849Z,13.77
2022-09-14T04:55:42.467Z,13.03
2022-09-14T04:57:44.186Z,18.63
2022-09-14T04:59:46.057Z,25.43
2022-09-14T05:01:48.771Z,21.13
2022-09-14T05:03:51.657Z,15.07
2022-09-14T05:05:53.610Z,13.90
2022-09-14T05:07:55.395Z,14.17
2022-09-14T05:09:57.014Z,12.90
2022-09-14T05:11:58.637Z,12.53
2022-09-14T05:14:01.606Z,10.37
2022-09-14T05:16:39.853Z,10.17
2022-09-14T05:18:42.233Z,10.50
2022-09-14T05:20:44.093Z,10.50
2022-09-14T05:22:50.020Z,11.63
2022-09-14T05:24:51.630Z,10.97
2022-09-14T05:26:57.081Z,10.33
2022-09-14T05:29:02.975Z,10.57
2022-09-14T05:31:06.970Z,10.63
2022-09-14T05:33:08.750Z,11.07
2022-09-14T05:35:10.544Z,10.87
2022-09-14T05:37:12.765Z,15.73
2022-09-14T05:39:14.482Z,48.77
2022-09-14T05:41:16.645Z,15.10
2022-09-14T05:43:18.390Z,13.93
2022-09-14T05:45:21.437Z,13.00
2022-09-14T05:47:23.097Z,13.07
2022-09-14T05:49:25.264Z,14.40
2022-09-14T05:51:28.374Z,13.63
2022-09-14T05:53:30.430Z,15.40
2022-09-14T05:55:32.273Z,14.27
2022-09-14T05:57:34.093Z,14.33
2022-09-14T05:59:35.805Z,14.83
2022-09-14T06:01:37.624Z,13.90
2022-09-14T06:03:39.654Z,12.97
2022-09-14T06:05:41.399Z,12.10
2022-09-14T06:07:43.739Z,12.03
2022-09-14T06:09:45.700Z,16.27
2022-09-14T06:11:47.327Z,13.83
2022-09-14T06:13:49.847Z,11.60
2022-09-14T06:15:51.459Z,11.50
2022-09-14T06:17:53.100Z,10.80
2022-09-14T06:19:54.761Z,10.53
2022-09-14T06:21:56.684Z,10.17
2022-09-14T06:23:58.785Z,10.67
2022-09-14T06:26:02.465Z,10.20
2022-09-14T06:28:04.129Z,9.90
2022-09-14T06:30:06.478Z,9.00
2022-09-14T06:32:08.298Z,7.70
2022-09-14T06:34:09.904Z,7.50
2022-09-14T06:36:14.508Z,6.60
2022-09-14T06:38:16.154Z,6.67
2022-09-14T06:40:18.184Z,5.73
2022-09-14T06:42:19.893Z,5.53
2022-09-14T06:44:21.712Z,5.17
2022-09-14T06:46:30.604Z,4.47
2022-09-14T06:48:35.428Z,6.00
2022-09-14T06:50:37.047Z,4.87
2022-09-14T06:52:39.538Z,5.63
2022-09-14T06:54:41.227Z,5.27
2022-09-14T06:56:44.876Z,4.90
2022-09-14T06:58:47.000Z,5.10
2022-09-14T07:00:48.684Z,5.83
2022-09-14T07:02:54.902Z,6.87
2022-09-14T07:04:57.834Z,5.50
2022-09-14T07:06:59.452Z,6.30
2022-09-14T07:09:04.907Z,6.07
2022-09-14T07:11:08.206Z,5.90
2022-09-14T07:13:09.871Z,5.83
2022-09-14T07:15:11.840Z,6.20
2022-09-14T07:17:16.673Z,6.10
2022-09-14T07:19:18.462Z,6.73
2022-09-14T07:21:21.206Z,6.10
2022-09-14T07:23:22.902Z,6.40
2022-09-14T07:25:24.573Z,5.63
2022-09-14T07:27:26.349Z,5.57
2022-09-14T07:29:28.035Z,4.77
2022-09-14T07:31:36.570Z,5.00
2022-09-14T07:33:38.209Z,4.90
2022-09-14T07:35:39.894Z,4.10
2022-09-14T07:37:41.555Z,4.00
2022-09-14T07:39:43.233Z,4.33
2022-09-14T07:41:45.327Z,3.87
2022-09-14T07:43:54.892Z,4.97
2022-09-14T07:45:56.968Z,4.63
2022-09-14T07:47:59.315Z,4.40
2022-09-14T07:50:01.114Z,4.30
2022-09-14T07:52:03.107Z,4.70
2022-09-14T07:54:06.402Z,4.10
2022-09-14T07:56:09.450Z,4.50
2022-09-14T07:58:11.059Z,4.20
2022-09-14T08:00:14.586Z,3.53
2022-09-14T08:02:16.327Z,3.93
2022-09-14T08:04:17.981Z,3.67
2022-09-14T08:06:22.519Z,3.43
2022-09-14T08:08:24.579Z,2.90
2022-09-14T08:10:26.292Z,2.90
2022-09-14T08:12:27.942Z,2.93
2022-09-14T08:14:29.664Z,3.03
2022-09-14T08:16:34.069Z,3.23
2022-09-14T08:18:36.976Z,3.00
2022-09-14T08:20:39.058Z,3.10
2022-09-14T08:22:40.677Z,3.50
2022-09-14T08:24:42.498Z,3.20
2022-09-14T08:26:44.948Z,3.33
2022-09-14T08:28:47.950Z,3.37
2022-09-14T08:30:49.599Z,4.00
2022-09-14T08:32:51.222Z,4.97
2022-09-14T08:34:52.966Z,4.67
2022-09-14T08:36:54.641Z,4.10
2022-09-14T08:38:56.379Z,3.97
2022-09-14T08:41:05.827Z,3.90
2022-09-14T08:43:11.295Z,4.00
2022-09-14T08:45:16.685Z,4.30
2022-09-14T08:47:40.221Z,3.90
2022-09-14T08:49:54.732Z,4.07
2022-09-14T08:51:57.245Z,4.47
2022-09-14T08:54:01.828Z,8.70
2022-09-14T08:56:12.412Z,8.97
2022-09-14T08:58:20.640Z,7.57
2022-09-14T09:00:25.551Z,6.00
2022-09-14T09:02:52.083Z,4.87
2022-09-14T09:05:20.179Z,4.40
2022-09-14T09:07:42.414Z,4.10
2022-09-14T09:09:53.090Z,4.10
2022-09-14T09:11:55.826Z,5.23
2022-09-14T09:13:59.012Z,4.93
2022-09-14T09:16:04.393Z,3.77
2022-09-14T09:18:16.202Z,3.20
2022-09-14T09:20:34.617Z,3.85
2022-09-14T09:22:42.829Z,4.80
2022-09-14T09:24:50.529Z,4.68
2022-09-14T09:26:52.322Z,3.13
2022-09-14T09:28:57.575Z,4.30
2022-09-14T09:31:04.879Z,4.57
2022-09-14T09:33:07.473Z,3.30
2022-09-14T09:35:15.501Z,4.40
2022-09-14T09:37:23.080Z,3.90
2022-09-14T09:39:25.861Z,3.28
2022-09-14T09:41:31.363Z,3.30
2022-09-14T09:43:49.030Z,3.25
2022-09-14T09:45:57.486Z,3.33
2022-09-14T09:48:11.318Z,4.95
2022-09-14T09:50:21.924Z,3.47
2022-09-14T09:52:24.091Z,4.28
2022-09-14T09:54:30.856Z,4.30
2022-09-14T09:56:36.276Z,3.70
2022-09-14T09:58:38.964Z,4.18
2022-09-14T10:00:40.879Z,3.72
2022-09-14T10:02:42.633Z,3.30
2022-09-14T10:05:00.641Z,3.00
2022-09-14T10:07:03.982Z,3.57
2022-09-14T10:09:16.944Z,2.90
2022-09-14T10:11:30.077Z,2.70
2022-09-14T10:13:38.733Z,2.83
2022-09-14T10:15:41.464Z,2.67
2022-09-14T10:17:57.103Z,3.20
2022-09-14T10:19:58.998Z,3.05
2022-09-14T10:22:15.524Z,2.55
2022-09-14T10:24:22.254Z,2.97
2022-09-14T10:26:26.950Z,6.40
2022-09-14T10:28:31.864Z,2.72
2022-09-14T10:30:50.996Z,3.28
2022-09-14T10:33:08.830Z,3.60
2022-09-14T10:35:15.458Z,6.07
2022-09-14T10:37:28.323Z,5.07
2022-09-14T10:39:46.711Z,4.15
2022-09-14T10:42:20.176Z,3.95
2022-09-14T10:44:44.062Z,10.00
2022-09-14T10:47:09.814Z,3.03
2022-09-14T10:49:32.178Z,2.55
2022-09-14T10:51:39.942Z,2.70
2022-09-14T10:53:54.723Z,35.78
2022-09-14T10:56:13.686Z,3.30
2022-09-14T10:58:30.169Z,23.48
2022-09-14T11:00:40.046Z,3.58
2022-09-14T11:02:57.333Z,2.58
2022-09-14T11:05:20.541Z,2.83
2022-09-14T11:07:47.359Z,3.22
2022-09-14T11:10:04.532Z,3.42
2022-09-14T11:12:19.568Z,3.83
2022-09-14T11:14:39.080Z,3.67
2022-09-14T11:17:07.871Z,2.78
2022-09-14T11:19:47.015Z,15.73
2022-09-14T11:21:52.297Z,2.72
2022-09-14T11:24:05.534Z,2.40
2022-09-14T11:26:42.615Z,2.65
2022-09-14T11:28:52.798Z,2.10
2022-09-14T11:31:06.588Z,2.42
2022-09-14T11:33:31.028Z,2.50
2022-09-14T11:35:43.309Z,2.30
2022-09-14T11:37:55.796Z,2.78
2022-09-14T11:40:29.081Z,2.38
2022-09-14T11:42:40.512Z,2.33
2022-09-14T11:44:46.999Z,2.33
2022-09-14T11:47:21.795Z,2.30
2022-09-14T11:49:34.649Z,3.00
2022-09-14T11:51:54.823Z,2.20
2022-09-14T11:53:56.653Z,2.90
2022-09-14T11:55:58.607Z,2.38
2022-09-14T11:58:04.042Z,2.35
2022-09-14T12:00:22.795Z,2.85
2022-09-14T12:02:30.180Z,2.63
2022-09-14T12:04:32.167Z,2.42
2022-09-14T12:06:36.944Z,2.92
2022-09-14T12:08:40.270Z,2.33
2022-09-14T12:11:01.722Z,2.67
2022-09-14T12:13:06.378Z,2.35
2022-09-14T12:15:28.953Z,2.97
2022-09-14T12:17:41.862Z,2.72
2022-09-14T12:19:49.174Z,2.50
2022-09-14T12:21:51.541Z,2.57
2022-09-14T12:23:57.920Z,2.53
2022-09-14T12:26:20.064Z,2.70
2022-09-14T12:28:35.926Z,3.10
2022-09-14T12:30:41.067Z,2.70
2022-09-14T12:32:43.913Z,3.00
2022-09-14T12:34:45.533Z,2.90
2022-09-14T12:36:47.204Z,2.57
2022-09-14T12:38:55.144Z,2.53
2022-09-14T12:41:29.538Z,2.47
2022-09-14T12:43:37.060Z,2.60
2022-09-14T12:45:59.793Z,2.97
2022-09-14T12:48:01.524Z,2.87
2022-09-14T12:50:14.552Z,3.00
2022-09-14T12:52:42.851Z,3.03
2022-09-14T12:55:18.948Z,3.27
2022-09-14T12:57:49.638Z,3.00
2022-09-14T13:00:13.305Z,3.30
2022-09-14T13:02:40.196Z,3.90
2022-09-14T13:04:45.489Z,4.10
2022-09-14T13:06:47.686Z,4.67
2022-09-14T13:08:58.170Z,4.90
2022-09-14T13:10:59.855Z,4.37
2022-09-14T13:13:05.347Z,4.20
2022-09-14T13:15:28.905Z,4.40
2022-09-14T13:17:30.811Z,4.00
2022-09-14T13:19:34.170Z,3.67
2022-09-14T13:21:45.391Z,3.43
2022-09-14T13:23:47.945Z,4.50
2022-09-14T13:25:50.637Z,3.57
2022-09-14T13:27:52.753Z,4.40
2022-09-14T13:30:05.806Z,4.87
2022-09-14T13:32:13.592Z,4.83
2022-09-14T13:34:25.574Z,5.20
2022-09-14T13:36:31.504Z,5.40
2022-09-14T13:38:36.459Z,4.70
2022-09-14T13:40:38.291Z,5.13
2022-09-14T13:42:41.378Z,4.53
2022-09-14T13:44:46.548Z,4.37
2022-09-14T13:46:48.522Z,3.77
2022-09-14T13:48:52.183Z,4.07
2022-09-14T13:50:54.238Z,4.27
2022-09-14T13:53:04.335Z,3.83
2022-09-14T13:55:24.248Z,4.00
2022-09-14T13:57:26.082Z,3.37
2022-09-14T13:59:27.709Z,3.50
2022-09-14T14:01:30.025Z,3.23
2022-09-14T14:03:41.460Z,2.93
2022-09-14T14:05:43.726Z,2.83
2022-09-14T14:07:45.957Z,2.90
2022-09-14T14:09:51.040Z,3.03
2022-09-14T14:11:55.124Z,2.93
2022-09-14T14:14:09.220Z,2.73
2022-09-14T14:16:23.691Z,3.10
2022-09-14T14:18:37.155Z,2.93
2022-09-14T14:20:39.510Z,2.60
2022-09-14T14:23:17.579Z,2.33
2022-09-14T14:25:19.908Z,2.30
2022-09-14T14:27:44.399Z,2.70
2022-09-14T14:29:46.134Z,2.90
2022-09-14T14:31:48.281Z,2.30
2022-09-14T14:33:53.322Z,2.30
2022-09-14T14:35:56.894Z,2.30
2022-09-14T14:37:58.834Z,2.30
2022-09-14T14:40:00.589Z,1.87
2022-09-14T14:42:03.575Z,2.00
2022-09-14T14:44:07.251Z,2.73
2022-09-14T14:46:09.308Z,2.40
2022-09-14T14:48:12.169Z,2.33
2022-09-14T14:50:17.099Z,2.30
2022-09-14T14:52:19.582Z,2.50
2022-09-14T14:54:21.301Z,2.10
2022-09-14T14:56:23.111Z,2.57
2022-09-14T14:58:25.132Z,2.20
2022-09-14T15:00:28.753Z,2.33
2022-09-14T15:02:30.419Z,2.90
2022-09-14T15:04:32.307Z,2.50
2022-09-14T15:06:34.062Z,3.20
2022-09-14T15:08:35.685Z,2.80
2022-09-14T15:10:38.152Z,2.50
2022-09-14T15:12:39.829Z,2.63
2022-09-14T15:14:41.574Z,3.30
2022-09-14T15:16:43.700Z,2.87
2022-09-14T15:18:45.455Z,2.87
2022-09-14T15:20:47.114Z,2.83
2022-09-14T15:22:49.190Z,3.10
2022-09-14T15:24:50.854Z,3.10
2022-09-14T15:26:54.140Z,3.40
2022-09-14T15:28:55.846Z,2.97
2022-09-14T15:30:58.356Z,2.60
2022-09-14T15:33:00.029Z,3.10
2022-09-14T15:35:02.805Z,3.00
2022-09-14T15:37:04.630Z,2.50
2022-09-14T15:39:07.976Z,2.70
2022-09-14T15:41:12.398Z,2.97
2022-09-14T15:43:14.385Z,2.23
2022-09-14T15:45:16.281Z,1.90
2022-09-14T15:47:17.985Z,2.17
2022-09-14T15:49:25.126Z,2.07
2022-09-14T15:51:26.775Z,2.00
2022-09-14T15:53:28.521Z,2.00
2022-09-14T15:55:30.203Z,1.80
2022-09-14T15:57:32.180Z,2.00
2022-09-14T15:59:34.839Z,2.23
2022-09-14T16:01:36.600Z,2.13
2022-09-14T16:03:40.160Z,2.20
2022-09-14T16:05:42.061Z,2.30
2022-09-14T16:07:44.495Z,1.70
2022-09-14T16:09:46.170Z,1.83
2022-09-14T16:11:48.192Z,1.77
2022-09-14T16:13:51.172Z,1.63
2022-09-14T16:16:04.278Z,1.70
2022-09-14T16:18:06.705Z,1.73
2022-09-14T16:20:10.452Z,1.90
2022-09-14T16:22:12.196Z,1.80
2022-09-14T16:24:16.513Z,1.80
2022-09-14T16:26:21.641Z,1.93
2022-09-14T16:28:23.291Z,1.50
2022-09-14T16:30:24.929Z,1.83
2022-09-14T16:32:27.702Z,2.03
2022-09-14T16:34:30.730Z,2.63
2022-09-14T16:36:35.115Z,1.80
2022-09-14T16:38:37.597Z,2.30
2022-09-14T16:40:42.793Z,1.50
2022-09-14T16:42:46.939Z,1.93
2022-09-14T16:44:48.865Z,1.80
2022-09-14T16:46:51.196Z,2.20
2022-09-14T16:48:53.614Z,2.03
2022-09-14T16:50:55.579Z,1.97
2022-09-14T16:52:57.208Z,1.80
2022-09-14T16:54:58.917Z,1.80
2022-09-14T16:57:01.315Z,2.10
2022-09-14T16:59:04.225Z,2.03
2022-09-14T17:01:10.067Z,2.07
2022-09-14T17:03:11.780Z,2.33
2022-09-14T17:05:13.899Z,2.10
2022-09-14T17:07:15.590Z,1.80
2022-09-14T17:09:25.978Z,1.90
2022-09-14T17:11:32.821Z,2.10
2022-09-14T17:13:36.457Z,2.40
2022-09-14T17:15:38.463Z,1.90
2022-09-14T17:17:40.825Z,2.10
2022-09-14T17:19:43.765Z,1.90
2022-09-14T17:21:46.690Z,2.13
2022-09-14T17:23:48.934Z,1.83
2022-09-14T17:25:50.623Z,1.90
2022-09-14T17:27:52.449Z,1.80
2022-09-14T17:29:54.125Z,2.33
2022-09-14T17:31:55.841Z,1.80
2022-09-14T17:34:00.445Z,2.07
2022-09-14T17:36:04.098Z,2.40
2022-09-14T17:38:05.760Z,2.10
2022-09-14T17:40:09.766Z,2.17
2022-09-14T17:42:11.471Z,2.23
2022-09-14T17:44:14.563Z,2.20
2022-09-14T17:46:17.121Z,2.10
2022-09-14T17:48:19.445Z,1.97
2022-09-14T17:50:23.945Z,2.37
2022-09-14T17:52:25.945Z,2.20
2022-09-14T17:54:28.197Z,2.37
2022-09-14T17:56:30.933Z,2.30
2022-09-14T17:58:33.339Z,2.10
2022-09-14T18:00:35.304Z,2.37
2022-09-14T18:02:36.986Z,2.13
2022-09-14T18:04:38.673Z,1.97
2022-09-14T18:06:43.925Z,2.40
2022-09-14T18:08:47.124Z,2.90
2022-09-14T18:10:48.846Z,2.43
2022-09-14T18:12:53.127Z,2.70
2022-09-14T18:14:54.785Z,2.30
2022-09-14T18:16:58.930Z,2.20
2022-09-14T18:19:00.746Z,2.30
2022-09-14T18:21:03.225Z,2.00
2022-09-14T18:23:04.937Z,2.23
2022-09-14T18:25:07.744Z,2.03
2022-09-14T18:27:09.527Z,2.50
2022-09-14T18:29:15.177Z,2.33
2022-09-14T18:31:18.645Z,3.13
2022-09-14T18:33:20.316Z,2.50
2022-09-14T18:35:21.955Z,2.43
2022-09-14T18:37:23.966Z,2.47
2022-09-14T18:39:25.812Z,2.30
2022-09-14T18:41:33.887Z,2.30
2022-09-14T18:43:36.206Z,2.60
2022-09-14T18:45:37.942Z,2.10
2022-09-14T18:47:39.565Z,2.50
2022-09-14T18:49:41.228Z,2.40
2022-09-14T18:51:43.376Z,2.93
2022-09-14T18:53:45.238Z,2.57
2022-09-14T18:55:47.163Z,2.43
2022-09-14T18:57:49.853Z,2.57
2022-09-14T18:59:51.771Z,2.70
2022-09-14T19:01:53.586Z,2.50
2022-09-14T19:03:56.077Z,2.50
2022-09-14T19:05:57.909Z,2.70
2022-09-14T19:07:59.823Z,2.30
2022-09-14T19:10:01.653Z,2.70
2022-09-14T19:12:03.409Z,2.10
2022-09-14T19:14:10.133Z,2.50
2022-09-14T19:16:18.837Z,2.80
2022-09-14T19:18:20.528Z,2.57
2022-09-14T19:20:23.073Z,2.50
2022-09-14T19:22:25.201Z,2.10
2022-09-14T19:24:30.689Z,2.30
2022-09-14T19:26:43.939Z,2.20
2022-09-14T19:28:47.014Z,2.00
2022-09-14T19:30:50.007Z,2.60
2022-09-14T19:32:52.283Z,2.40
2022-09-14T19:34:54.499Z,2.50
2022-09-14T19:36:56.362Z,2.40
2022-09-14T19:39:01.941Z,2.70
2022-09-14T19:41:04.709Z,2.60
2022-09-14T19:43:06.598Z,2.00
2022-09-14T19:45:08.801Z,2.37
2022-09-14T19:47:10.569Z,2.40
2022-09-14T19:49:18.266Z,2.50
2022-09-14T19:51:23.744Z,2.30
2022-09-14T19:53:25.674Z,2.30
2022-09-14T19:55:27.461Z,2.30
2022-09-14T19:57:29.090Z,2.20
2022-09-14T19:59:30.711Z,2.40
2022-09-14T20:01:33.509Z,2.23
2022-09-14T20:03:36.856Z,2.27
2022-09-14T20:05:38.769Z,3.10
2022-09-14T20:07:40.362Z,2.27
2022-09-14T20:09:42.242Z,2.40
2022-09-14T20:11:45.564Z,2.83
2022-09-14T20:13:50.197Z,2.30
2022-09-14T20:15:55.612Z,2.47
2022-09-14T20:17:57.253Z,2.50
2022-09-14T20:19:59.631Z,2.40
2022-09-14T20:22:01.307Z,2.37
2022-09-14T20:24:15.635Z,2.00
2022-09-14T20:26:18.502Z,2.23
2022-09-14T20:28:25.529Z,2.50
2022-09-14T20:30:27.259Z,2.30
2022-09-14T20:32:31.444Z,2.37
2022-09-14T20:34:34.332Z,2.33
2022-09-14T20:36:36.177Z,2.70
2022-09-14T20:38:53.992Z,2.50
2022-09-14T20:41:00.815Z,2.50
2022-09-14T20:43:02.522Z,2.43
2022-09-14T20:45:04.562Z,2.97
2022-09-14T20:47:06.377Z,2.27
2022-09-14T20:49:11.513Z,2.63
2022-09-14T20:51:17.176Z,2.33
2022-09-14T20:53:20.317Z,2.50
2022-09-14T20:55:21.942Z,2.03
2022-09-14T20:57:24.137Z,2.40
2022-09-14T20:59:25.938Z,2.10
2022-09-14T21:01:30.720Z,2.33
2022-09-14T21:03:33.277Z,2.97
2022-09-14T21:05:35.008Z,2.70
2022-09-14T21:07:36.621Z,2.60
2022-09-14T21:09:39.318Z,2.50
2022-09-14T21:11:41.873Z,2.70
2022-09-14T21:13:44.429Z,2.57
2022-09-14T21:15:46.237Z,2.40
2022-09-14T21:17:48.146Z,2.60
2022-09-14T21:19:49.769Z,3.10
2022-09-14T21:21:51.772Z,2.30
2022-09-14T21:23:55.842Z,2.50
2022-09-14T21:25:58.621Z,2.73
2022-09-14T21:28:03.162Z,2.37
2022-09-14T21:30:05.828Z,2.40
2022-09-14T21:32:09.143Z,2.80
2022-09-14T21:34:12.427Z,2.20
2022-09-14T21:36:20.680Z,2.50
2022-09-14T21:38:22.486Z,2.67
2022-09-14T21:40:25.437Z,2.90
2022-09-14T21:42:28.900Z,2.47
2022-09-14T21:44:32.614Z,2.53
2022-09-14T21:46:34.527Z,2.70
2022-09-14T21:48:36.971Z,2.70
2022-09-14T21:50:38.598Z,2.27
2022-09-14T21:52:44.746Z,2.93
2022-09-14T21:54:46.326Z,2.90
2022-09-14T21:56:48.666Z,2.60
2022-09-14T21:58:52.574Z,3.13
2022-09-14T22:00:59.172Z,3.07
2022-09-14T22:03:00.919Z,3.00
2022-09-14T22:05:03.787Z,3.23
2022-09-14T22:07:05.425Z,2.80
2022-09-14T22:09:07.273Z,2.83
2022-09-14T22:11:20.118Z,2.57
2022-09-14T22:13:24.510Z,3.00
2022-09-14T22:15:29.433Z,3.00
2022-09-14T22:17:32.376Z,3.37
2022-09-14T22:19:37.171Z,2.70
2022-09-14T22:21:39.631Z,3.17
2022-09-14T22:23:41.269Z,3.10
2022-09-14T22:25:42.943Z,3.07
2022-09-14T22:27:44.577Z,3.00
2022-09-14T22:29:49.094Z,3.30
2022-09-14T22:31:50.908Z,2.90
2022-09-14T22:33:55.323Z,3.03
2022-09-14T22:36:00.266Z,2.97
2022-09-14T22:38:02.205Z,2.73
2022-09-14T22:40:04.460Z,3.77
2022-09-14T22:42:06.353Z,2.90
2022-09-14T22:44:08.591Z,2.97
2022-09-14T22:46:10.780Z,2.60
2022-09-14T22:48:12.497Z,2.67
2022-09-14T22:50:14.871Z,2.50
2022-09-14T22:52:16.561Z,3.37
2022-09-14T22:54:18.349Z,3.10
2022-09-14T22:56:27.716Z,3.37
2022-09-14T22:58:29.389Z,2.93
2022-09-14T23:00:32.657Z,2.90
2022-09-14T23:02:34.442Z,3.03
2022-09-14T23:04:36.453Z,3.03
2022-09-14T23:06:43.710Z,2.80
2022-09-14T23:08:47.103Z,3.07
2022-09-14T23:10:49.868Z,2.90
2022-09-14T23:12:51.681Z,2.60
2022-09-14T23:14:53.442Z,2.90
2022-09-14T23:16:55.150Z,2.90
2022-09-14T23:18:59.317Z,2.87
2022-09-14T23:21:03.078Z,2.90
2022-09-14T23:23:05.033Z,2.87
2022-09-14T23:25:10.263Z,3.50
2022-09-14T23:27:12.247Z,3.50
2022-09-14T23:29:17.428Z,3.43
2022-09-14T23:31:19.610Z,3.90
2022-09-14T23:33:21.363Z,3.30
2022-09-14T23:35:23.057Z,3.70
2022-09-14T23:37:24.731Z,4.30
2022-09-14T23:39:26.397Z,3.53
2022-09-14T23:41:28.852Z,4.50
2022-09-14T23:43:30.545Z,4.43
2022-09-14T23:45:32.394Z,4.33
2022-09-14T23:47:34.105Z,3.97
2022-09-14T23:49:38.269Z,5.20
2022-09-14T23:51:41.661Z,5.63
2022-09-14T23:53:44.214Z,5.13
2022-09-14T23:55:46.465Z,5.17
2022-09-14T23:57:51.242Z,5.37
2022-09-14T23:59:52.910Z,5.00
